createdAt,value
2023-02-11T00:00:07.213Z,83.51
2023-02-11T00:01:38.811Z,84.20
2023-02-11T00:03:10.526Z,84.01
2023-02-11T00:04:44.732Z,83.96
2023-02-11T00:06:16.769Z,83.51
2023-02-11T00:07:48.412Z,82.98
2023-02-11T00:09:21.540Z,83.13
2023-02-11T00:10:53.544Z,83.67
2023-02-11T00:12:25.587Z,83.05
2023-02-11T00:13:57.439Z,85.32
2023-02-11T00:15:29.204Z,84.94
2023-02-11T00:17:01.009Z,84.18
2023-02-11T00:18:36.546Z,83.47
2023-02-11T00:20:09.305Z,84.50
2023-02-11T00:21:41.035Z,84.22
2023-02-11T00:23:12.909Z,83.57
2023-02-11T00:24:46.187Z,82.63
2023-02-11T00:26:18.751Z,83.04
2023-02-11T00:27:50.429Z,84.13
2023-02-11T00:29:22.335Z,84.60
2023-02-11T00:30:55.247Z,82.76
2023-02-11T00:32:27.025Z,83.55
2023-02-11T00:33:58.913Z,84.81
2023-02-11T00:35:30.594Z,86.02
2023-02-11T00:37:02.265Z,84.02
2023-02-11T00:38:33.964Z,83.00
2023-02-11T00:40:08.462Z,83.22
2023-02-11T00:41:40.119Z,82.35
2023-02-11T00:43:11.732Z,82.76
2023-02-11T00:44:43.364Z,82.82
2023-02-11T00:46:15.185Z,83.04
2023-02-11T00:47:46.919Z,83.51
2023-02-11T00:49:18.619Z,83.61
2023-02-11T00:50:50.440Z,84.55
2023-02-11T00:52:22.141Z,83.80
2023-02-11T00:53:53.891Z,83.05
2023-02-11T00:55:29.473Z,83.38
2023-02-11T00:57:01.152Z,83.95
2023-02-11T00:58:32.883Z,83.65
2023-02-11T01:00:04.994Z,83.53
2023-02-11T01:01:36.843Z,84.46
2023-02-11T01:03:08.834Z,83.85
2023-02-11T01:04:40.471Z,83.83
2023-02-11T01:06:12.117Z,83.15
2023-02-11T01:07:43.806Z,82.82
2023-02-11T01:09:15.462Z,83.79
2023-02-11T01:10:55.573Z,83.57
2023-02-11T01:12:27.223Z,84.30
2023-02-11T01:13:58.872Z,84.08
2023-02-11T01:15:30.602Z,85.86
2023-02-11T01:17:03.542Z,84.71
2023-02-11T01:18:35.341Z,84.22
2023-02-11T01:20:08.368Z,84.56
2023-02-11T01:21:40.153Z,84.04
2023-02-11T01:23:11.790Z,84.56
2023-02-11T01:24:43.509Z,84.34
2023-02-11T01:26:16.688Z,85.33
2023-02-11T01:27:48.723Z,84.01
2023-02-11T01:29:20.412Z,84.96
2023-02-11T01:30:52.424Z,83.71
2023-02-11T01:32:24.204Z,84.77
2023-02-11T01:33:56.095Z,84.31
2023-02-11T01:35:28.107Z,84.13
2023-02-11T01:37:00.083Z,84.85
2023-02-11T01:38:31.841Z,84.97
2023-02-11T01:40:03.753Z,83.95
2023-02-11T01:41:37.124Z,84.81
2023-02-11T01:43:10.567Z,85.29
2023-02-11T01:44:42.276Z,84.27
2023-02-11T01:46:34.352Z,84.17
2023-02-11T01:48:06.105Z,84.64
2023-02-11T01:49:41.087Z,85.63
2023-02-11T01:51:13.548Z,84.98
2023-02-11T01:52:47.264Z,84.33
2023-02-11T01:54:39.302Z,84.92
2023-02-11T01:56:29.433Z,83.38
2023-02-11T01:58:02.952Z,82.42
2023-02-11T01:59:45.580Z,82.94
2023-02-11T02:01:19.234Z,84.49
2023-02-11T02:02:54.822Z,85.20
2023-02-11T02:04:31.394Z,85.37
2023-02-11T02:06:06.018Z,84.81
2023-02-11T02:07:39.818Z,84.38
2023-02-11T02:09:13.196Z,84.98
2023-02-11T02:10:46.279Z,85.46
2023-02-11T02:12:18.062Z,86.41
2023-02-11T02:13:51.151Z,84.74
2023-02-11T02:15:34.549Z,84.11
2023-02-11T02:17:06.303Z,84.54
2023-02-11T02:18:41.185Z,84.03
2023-02-11T02:20:43.512Z,84.02
2023-02-11T02:22:42.127Z,83.37
2023-02-11T02:24:38.370Z,83.63
2023-02-11T02:26:37.587Z,84.38
2023-02-11T02:28:18.026Z,83.39
2023-02-11T02:30:03.027Z,83.41
2023-02-11T02:31:42.457Z,83.70
2023-02-11T02:33:24.462Z,82.67
2023-02-11T02:34:58.462Z,83.83
2023-02-11T02:36:32.232Z,83.67
2023-02-11T02:38:07.242Z,84.44
2023-02-11T02:39:38.847Z,84.20
2023-02-11T02:41:11.947Z,84.80
2023-02-11T02:42:43.647Z,86.67
2023-02-11T02:44:15.328Z,86.23
2023-02-11T02:45:46.999Z,86.46
2023-02-11T02:47:18.773Z,84.96
2023-02-11T02:48:52.788Z,86.11
2023-02-11T02:50:30.200Z,85.94
2023-02-11T02:52:10.861Z,85.45
2023-02-11T02:53:47.541Z,85.53
2023-02-11T02:55:31.121Z,85.18
2023-02-11T02:57:07.839Z,84.39
2023-02-11T02:58:53.143Z,86.00
2023-02-11T03:00:28.742Z,87.45
2023-02-11T03:02:11.026Z,85.54
2023-02-11T03:03:45.798Z,86.70
2023-02-11T03:05:21.793Z,85.83
2023-02-11T03:06:55.254Z,85.01
2023-02-11T03:08:30.067Z,84.15
2023-02-11T03:10:03.660Z,83.55
2023-02-11T03:11:35.652Z,84.52
2023-02-11T03:13:07.251Z,84.60
2023-02-11T03:14:39.015Z,84.87
2023-02-11T03:16:12.555Z,85.19
2023-02-11T03:17:47.844Z,86.58
2023-02-11T03:19:20.964Z,84.83
2023-02-11T03:20:54.162Z,84.45
2023-02-11T03:22:27.188Z,84.58
2023-02-11T03:24:01.104Z,84.96
2023-02-11T03:25:36.356Z,85.15
2023-02-11T03:27:10.903Z,85.19
2023-02-11T03:28:44.067Z,85.09
2023-02-11T03:30:17.558Z,85.45
2023-02-11T03:31:53.116Z,85.33
2023-02-11T03:33:27.004Z,85.52
2023-02-11T03:34:59.313Z,83.86
2023-02-11T03:36:38.565Z,85.13
2023-02-11T03:38:12.520Z,84.71
2023-02-11T03:39:46.870Z,84.42
2023-02-11T03:41:20.038Z,83.84
2023-02-11T03:42:53.479Z,86.05
2023-02-11T03:44:25.721Z,86.93
2023-02-11T03:45:57.483Z,85.93
2023-02-11T03:47:29.226Z,84.93
2023-02-11T03:49:03.085Z,83.86
2023-02-11T03:50:34.858Z,84.54
2023-02-11T03:52:07.974Z,84.49
2023-02-11T03:53:40.823Z,84.39
2023-02-11T03:55:13.744Z,84.76
2023-02-11T03:56:49.148Z,84.28
2023-02-11T03:58:20.948Z,84.20
2023-02-11T03:59:53.875Z,84.92
2023-02-11T04:01:25.572Z,84.07
2023-02-11T04:02:57.535Z,86.41
2023-02-11T04:04:29.212Z,86.25
2023-02-11T04:06:00.932Z,85.01
2023-02-11T04:07:34.091Z,83.77
2023-02-11T04:09:05.712Z,84.26
2023-02-11T04:10:39.815Z,85.74
2023-02-11T04:12:11.615Z,86.00
2023-02-11T04:13:51.330Z,85.87
2023-02-11T04:15:26.161Z,85.44
2023-02-11T04:16:57.851Z,84.44
2023-02-11T04:18:29.622Z,85.62
2023-02-11T04:20:02.921Z,86.43
2023-02-11T04:21:40.149Z,84.72
2023-02-11T04:23:13.216Z,85.67
2023-02-11T04:24:49.351Z,84.94
2023-02-11T04:26:23.337Z,85.21
2023-02-11T04:27:55.155Z,86.16
2023-02-11T04:29:28.306Z,86.96
2023-02-11T04:31:00.031Z,85.00
2023-02-11T04:32:31.864Z,85.35
2023-02-11T04:34:03.522Z,84.32
2023-02-11T04:35:35.500Z,84.32
2023-02-11T04:37:09.778Z,84.16
2023-02-11T04:38:42.929Z,84.80
2023-02-11T04:40:14.758Z,84.36
2023-02-11T04:41:46.415Z,86.07
2023-02-11T04:43:18.099Z,86.20
2023-02-11T04:44:49.744Z,86.59
2023-02-11T04:46:21.572Z,86.02
2023-02-11T04:47:53.703Z,85.57
2023-02-11T04:49:25.409Z,86.05
2023-02-11T04:50:57.046Z,84.77
2023-02-11T04:52:28.736Z,84.83
2023-02-11T04:54:16.203Z,86.12
2023-02-11T04:56:59.426Z,86.38
2023-02-11T05:01:48.020Z,84.56
2023-02-11T05:03:50.819Z,85.32
2023-02-11T05:06:16.216Z,85.54
2023-02-11T05:14:07.194Z,86.80
2023-02-11T05:17:37.741Z,86.55
2023-02-11T05:21:08.685Z,83.88
2023-02-11T05:22:51.981Z,84.51
2023-02-11T05:24:54.401Z,86.15
2023-02-11T05:26:44.297Z,85.04
2023-02-11T05:29:06.772Z,85.49
2023-02-11T05:32:12.751Z,85.28
2023-02-11T05:34:08.505Z,84.83
2023-02-11T05:35:43.123Z,85.90
2023-02-11T05:37:17.747Z,86.37
2023-02-11T05:38:50.644Z,84.61
2023-02-11T05:40:22.291Z,87.14
2023-02-11T05:41:55.337Z,87.62
2023-02-11T05:43:27.282Z,86.33
2023-02-11T05:44:58.980Z,86.16
2023-02-11T05:46:30.745Z,84.77
2023-02-11T05:48:02.357Z,84.24
2023-02-11T05:49:34.574Z,85.47
2023-02-11T05:51:06.227Z,86.40
2023-02-11T05:52:37.902Z,86.12
2023-02-11T05:54:09.716Z,84.74
2023-02-11T05:55:41.400Z,85.50
2023-02-11T05:57:14.685Z,86.04
2023-02-11T05:58:46.355Z,85.87
2023-02-11T06:00:18.493Z,86.96
2023-02-11T06:01:50.199Z,87.10
2023-02-11T06:03:21.811Z,86.72
2023-02-11T06:04:53.537Z,87.52
2023-02-11T06:06:25.196Z,87.01
2023-02-11T06:07:56.920Z,89.33
2023-02-11T06:09:28.651Z,89.91
2023-02-11T06:11:00.364Z,88.01
2023-02-11T06:12:33.509Z,85.76
2023-02-11T06:14:05.260Z,84.21
2023-02-11T06:15:37.039Z,83.96
2023-02-11T06:17:08.718Z,83.65
2023-02-11T06:18:40.360Z,84.30
2023-02-11T06:20:12.034Z,84.97
2023-02-11T06:21:44.627Z,85.21
2023-02-11T06:23:16.516Z,86.90
2023-02-11T06:25:00.743Z,86.28
2023-02-11T06:26:33.791Z,85.56
2023-02-11T06:28:06.920Z,85.71
2023-02-11T06:29:38.602Z,85.48
2023-02-11T06:31:11.788Z,86.43
2023-02-11T06:32:45.407Z,86.74
2023-02-11T06:34:17.683Z,87.44
2023-02-11T06:35:49.642Z,87.91
2023-02-11T06:37:21.514Z,85.11
2023-02-11T06:38:53.154Z,86.58
2023-02-11T06:40:24.908Z,85.32
2023-02-11T06:41:56.690Z,85.65
2023-02-11T06:43:29.941Z,86.18
2023-02-11T06:45:01.651Z,85.70
2023-02-11T06:46:33.379Z,86.14
2023-02-11T06:48:05.267Z,85.92
2023-02-11T06:49:36.912Z,84.70
2023-02-11T06:51:09.888Z,85.71
2023-02-11T06:52:41.570Z,86.85
2023-02-11T06:54:13.280Z,90.39
2023-02-11T06:55:45.000Z,87.16
2023-02-11T06:57:16.671Z,89.26
2023-02-11T06:58:52.256Z,91.67
2023-02-11T07:00:24.122Z,94.66
2023-02-11T07:01:55.837Z,93.66
2023-02-11T07:03:27.627Z,92.34
2023-02-11T07:04:59.279Z,93.83
2023-02-11T07:06:30.941Z,95.02
2023-02-11T07:08:02.939Z,93.65
2023-02-11T07:09:34.575Z,94.11
2023-02-11T07:11:09.601Z,95.23
2023-02-11T07:12:44.333Z,94.47
2023-02-11T07:14:17.409Z,92.88
2023-02-11T07:15:49.698Z,92.54
2023-02-11T07:17:21.458Z,93.21
2023-02-11T07:18:53.158Z,94.22
2023-02-11T07:20:25.470Z,92.13
2023-02-11T07:21:57.125Z,89.55
2023-02-11T07:23:29.119Z,91.08
2023-02-11T07:25:00.899Z,91.30
2023-02-11T07:26:32.776Z,92.62
2023-02-11T07:28:04.783Z,94.35
2023-02-11T07:29:37.993Z,94.77
2023-02-11T07:31:10.578Z,94.41
2023-02-11T07:32:42.247Z,92.86
2023-02-11T07:34:15.656Z,92.95
2023-02-11T07:35:48.762Z,91.79
2023-02-11T07:37:20.700Z,93.93
2023-02-11T07:38:52.411Z,94.11
2023-02-11T07:40:24.299Z,93.66
2023-02-11T07:41:56.006Z,93.24
2023-02-11T07:43:28.076Z,92.28
2023-02-11T07:45:01.622Z,91.60
2023-02-11T07:46:34.625Z,91.87
2023-02-11T07:48:06.658Z,92.38
2023-02-11T07:49:38.244Z,93.72
2023-02-11T07:51:11.148Z,93.47
2023-02-11T07:52:42.829Z,92.48
2023-02-11T07:54:14.494Z,93.87
2023-02-11T07:55:46.131Z,92.52
2023-02-11T07:57:17.777Z,92.65
2023-02-11T07:58:49.570Z,92.30
2023-02-11T08:00:22.731Z,92.38
2023-02-11T08:01:57.508Z,92.19
2023-02-11T08:03:29.353Z,93.41
2023-02-11T08:05:00.985Z,92.96
2023-02-11T08:06:33.933Z,91.82
2023-02-11T08:08:05.653Z,92.73
2023-02-11T08:09:37.763Z,92.00
2023-02-11T08:11:10.022Z,92.41
2023-02-11T08:12:41.699Z,92.87
2023-02-11T08:14:15.548Z,92.55
2023-02-11T08:15:49.376Z,92.63
2023-02-11T08:17:21.310Z,93.43
2023-02-11T08:18:53.420Z,93.62
2023-02-11T08:20:25.149Z,92.18
2023-02-11T08:21:57.131Z,91.98
2023-02-11T08:23:28.746Z,93.14
2023-02-11T08:25:00.415Z,93.72
2023-02-11T08:26:34.464Z,94.46
2023-02-11T08:28:06.366Z,94.58
2023-02-11T08:29:38.088Z,93.16
2023-02-11T08:31:12.128Z,93.92
2023-02-11T08:32:43.835Z,92.83
2023-02-11T08:34:18.488Z,94.73
2023-02-11T08:35:50.152Z,93.97
2023-02-11T08:37:23.007Z,93.72
2023-02-11T08:39:05.625Z,94.12
2023-02-11T08:40:44.100Z,94.60
2023-02-11T08:42:45.836Z,94.71
2023-02-11T08:44:17.769Z,93.71
2023-02-11T08:45:49.738Z,94.30
2023-02-11T08:47:23.045Z,93.72
2023-02-11T08:48:54.711Z,93.70
2023-02-11T08:50:28.405Z,94.11
2023-02-11T08:52:03.984Z,93.85
2023-02-11T08:53:39.772Z,94.09
2023-02-11T08:55:11.451Z,93.21
2023-02-11T08:56:46.207Z,93.21
2023-02-11T08:58:19.196Z,93.61
2023-02-11T08:59:53.328Z,93.57
2023-02-11T09:01:25.994Z,92.89
2023-02-11T09:03:02.286Z,92.69
2023-02-11T09:04:36.495Z,92.60
2023-02-11T09:06:08.794Z,92.14
2023-02-11T09:07:40.428Z,92.41
2023-02-11T09:09:14.930Z,91.51
2023-02-11T09:10:50.926Z,92.00
2023-02-11T09:12:22.752Z,91.70
2023-02-11T09:13:54.756Z,91.31
2023-02-11T09:15:26.813Z,90.51
2023-02-11T09:16:58.622Z,90.64
2023-02-11T09:18:31.790Z,90.32
2023-02-11T09:20:04.175Z,90.32
2023-02-11T09:21:42.307Z,89.40
2023-02-11T09:23:18.525Z,88.69
2023-02-11T09:24:50.369Z,89.15
2023-02-11T09:26:26.011Z,89.07
2023-02-11T09:27:57.720Z,89.31
2023-02-11T09:29:29.644Z,89.25
2023-02-11T09:31:06.127Z,89.21
2023-02-11T09:32:37.867Z,89.22
2023-02-11T09:34:11.999Z,88.96
2023-02-11T09:35:43.881Z,89.85
2023-02-11T09:37:16.097Z,89.60
2023-02-11T09:39:27.916Z,89.75
2023-02-11T09:41:27.618Z,90.53
2023-02-11T09:43:14.967Z,90.80
2023-02-11T09:44:46.998Z,90.69
2023-02-11T09:46:20.178Z,90.58
2023-02-11T09:47:55.801Z,90.51
2023-02-11T09:49:34.013Z,92.37
2023-02-11T09:51:05.934Z,91.32
2023-02-11T09:52:39.594Z,91.80
2023-02-11T09:54:19.514Z,91.34
2023-02-11T09:55:55.832Z,92.59
2023-02-11T09:57:33.381Z,92.91
2023-02-11T09:59:05.103Z,91.94
2023-02-11T10:00:38.226Z,91.15
2023-02-11T10:02:13.141Z,91.43
2023-02-11T10:03:54.231Z,90.69
2023-02-11T10:05:34.055Z,91.38
2023-02-11T10:07:08.592Z,91.38
2023-02-11T10:08:42.812Z,91.42
2023-02-11T10:10:17.992Z,91.22
2023-02-11T10:11:52.610Z,91.29
2023-02-11T10:13:42.429Z,90.53
2023-02-11T10:15:24.722Z,91.56
2023-02-11T10:17:01.697Z,90.89
2023-02-11T10:18:48.238Z,90.70
2023-02-11T10:20:24.849Z,90.08
2023-02-11T10:22:06.222Z,90.60
2023-02-11T10:23:39.530Z,90.44
2023-02-11T10:25:22.177Z,90.53
2023-02-11T10:26:56.857Z,90.42
2023-02-11T10:28:30.217Z,89.88
2023-02-11T10:30:05.141Z,90.38
2023-02-11T10:31:38.859Z,89.40
2023-02-11T10:33:14.101Z,89.17
2023-02-11T10:34:45.767Z,89.32
2023-02-11T10:36:18.533Z,88.91
2023-02-11T10:37:51.627Z,88.88
2023-02-11T10:39:25.577Z,88.62
2023-02-11T10:40:57.351Z,88.22
2023-02-11T10:42:29.041Z,88.44
2023-02-11T10:44:00.822Z,88.95
2023-02-11T10:45:33.840Z,88.64
2023-02-11T10:47:12.794Z,89.54
2023-02-11T10:48:45.895Z,88.37
2023-02-11T10:50:19.611Z,89.00
2023-02-11T10:51:58.189Z,88.91
2023-02-11T10:53:34.930Z,88.58
2023-02-11T10:55:14.810Z,89.24
2023-02-11T10:56:50.301Z,88.49
2023-02-11T10:58:26.252Z,88.93
2023-02-11T11:00:05.378Z,88.32
2023-02-11T11:01:40.924Z,87.71
2023-02-11T11:03:17.347Z,88.11
2023-02-11T11:04:49.193Z,87.92
2023-02-11T11:06:29.385Z,86.63
2023-02-11T11:08:04.527Z,87.66
2023-02-11T11:09:46.389Z,86.38
2023-02-11T11:11:18.892Z,85.91
2023-02-11T11:12:53.135Z,86.33
2023-02-11T11:14:28.915Z,86.20
2023-02-11T11:16:13.139Z,86.38
2023-02-11T11:17:44.942Z,87.51
2023-02-11T11:19:24.253Z,84.86
2023-02-11T11:20:56.685Z,85.80
2023-02-11T11:22:28.593Z,86.02
2023-02-11T11:24:01.180Z,86.39
2023-02-11T11:25:43.198Z,86.59
2023-02-11T11:27:17.844Z,86.37
2023-02-11T11:29:00.167Z,85.82
2023-02-11T11:30:34.865Z,85.63
2023-02-11T11:32:11.114Z,85.76
2023-02-11T11:33:44.145Z,85.66
2023-02-11T11:35:24.408Z,84.97
2023-02-11T11:36:56.556Z,84.80
2023-02-11T11:38:28.377Z,85.07
2023-02-11T11:40:02.470Z,83.78
2023-02-11T11:41:35.574Z,84.92
2023-02-11T11:43:20.245Z,84.10
2023-02-11T11:44:58.325Z,83.68
2023-02-11T11:46:32.609Z,83.47
2023-02-11T11:48:06.088Z,81.17
2023-02-11T11:49:41.974Z,81.10
2023-02-11T11:51:13.698Z,80.87
2023-02-11T11:52:51.169Z,80.92
2023-02-11T11:54:23.287Z,80.97
2023-02-11T11:55:59.914Z,81.11
2023-02-11T11:57:42.312Z,81.58
2023-02-11T11:59:31.169Z,80.96
2023-02-11T12:01:28.705Z,80.70
2023-02-11T12:03:28.415Z,79.75
2023-02-11T12:05:05.818Z,80.67
2023-02-11T12:06:43.170Z,80.13
2023-02-11T12:08:17.354Z,80.49
2023-02-11T12:09:55.592Z,79.98
2023-02-11T12:11:31.810Z,81.01
2023-02-11T12:13:40.172Z,80.31
2023-02-11T12:15:52.393Z,79.80
2023-02-11T12:17:52.415Z,78.77
2023-02-11T12:19:36.635Z,78.77
2023-02-11T12:21:37.212Z,79.00
2023-02-11T12:23:19.957Z,78.07
2023-02-11T12:25:03.225Z,78.16
2023-02-11T12:26:38.825Z,77.91
2023-02-11T12:28:24.075Z,79.01
2023-02-11T12:30:01.479Z,78.31
2023-02-11T12:31:41.062Z,77.03
2023-02-11T12:33:16.821Z,76.29
2023-02-11T12:35:07.420Z,76.15
2023-02-11T12:36:54.625Z,77.95
2023-02-11T12:38:32.856Z,78.49
2023-02-11T12:40:13.560Z,76.96
2023-02-11T12:42:12.346Z,76.83
2023-02-11T12:43:45.553Z,74.94
2023-02-11T12:45:33.495Z,73.63
2023-02-11T12:47:10.804Z,73.68
2023-02-11T12:48:59.504Z,72.92
2023-02-11T12:50:35.771Z,74.18
2023-02-11T12:52:17.999Z,73.20
2023-02-11T12:53:58.960Z,72.85
2023-02-11T12:55:35.812Z,73.18
2023-02-11T12:57:11.262Z,72.71
2023-02-11T12:58:45.686Z,70.55
2023-02-11T13:00:21.899Z,71.75
2023-02-11T13:01:53.598Z,71.27
2023-02-11T13:03:28.531Z,70.83
2023-02-11T13:05:02.063Z,70.70
2023-02-11T13:06:40.577Z,71.49
2023-02-11T13:08:15.512Z,71.57
2023-02-11T13:09:49.363Z,70.94
2023-02-11T13:11:22.986Z,70.03
2023-02-11T13:13:14.212Z,70.54
2023-02-11T13:14:46.001Z,69.38
2023-02-11T13:16:33.110Z,69.63
2023-02-11T13:18:10.080Z,68.59
2023-02-11T13:19:44.263Z,68.35
2023-02-11T13:21:46.179Z,69.72
2023-02-11T13:23:21.744Z,69.81
2023-02-11T13:24:56.052Z,67.86
2023-02-11T13:26:29.841Z,70.09
2023-02-11T13:28:05.575Z,69.07
2023-02-11T13:30:04.406Z,69.89
2023-02-11T13:31:38.316Z,67.67
2023-02-11T13:33:32.871Z,69.46
2023-02-11T13:35:26.587Z,68.10
2023-02-11T13:36:58.333Z,67.03
2023-02-11T13:38:30.171Z,67.41
2023-02-11T13:40:02.703Z,65.42
2023-02-11T13:41:37.038Z,67.22
2023-02-11T13:43:20.494Z,66.66
2023-02-11T13:44:52.194Z,66.46
2023-02-11T13:46:24.073Z,66.89
2023-02-11T13:47:58.102Z,64.48
2023-02-11T13:49:32.034Z,68.69
2023-02-11T13:51:05.934Z,65.06
2023-02-11T13:52:38.055Z,66.06
2023-02-11T13:54:18.700Z,66.05
2023-02-11T13:55:51.345Z,67.16
2023-02-11T13:57:38.968Z,65.25
2023-02-11T13:59:44.049Z,66.25
2023-02-11T14:01:42.301Z,64.05
2023-02-11T14:03:49.237Z,67.22
2023-02-11T14:05:47.511Z,65.77
2023-02-11T14:07:45.461Z,63.87
2023-02-11T14:09:38.202Z,65.42
2023-02-11T14:11:26.590Z,62.72
2023-02-11T14:13:18.428Z,62.56
2023-02-11T14:15:15.067Z,62.75
2023-02-11T14:17:23.462Z,65.11
2023-02-11T14:19:00.606Z,64.60
2023-02-11T14:20:35.369Z,64.94
2023-02-11T14:22:13.526Z,63.79
2023-02-11T14:23:45.377Z,65.12
2023-02-11T14:25:20.656Z,64.25
2023-02-11T14:26:54.445Z,64.52
2023-02-11T14:28:27.048Z,64.42
2023-02-11T14:30:34.442Z,66.50
2023-02-11T14:32:09.128Z,65.01
2023-02-11T14:33:52.276Z,65.91
2023-02-11T14:35:28.491Z,65.16
2023-02-11T14:37:12.466Z,65.51
2023-02-11T14:38:52.391Z,66.24
2023-02-11T14:40:27.731Z,66.13
2023-02-11T14:41:59.367Z,64.46
2023-02-11T14:43:43.495Z,64.85
2023-02-11T14:45:18.205Z,65.66
2023-02-11T14:46:50.705Z,65.84
2023-02-11T14:48:23.855Z,63.18
2023-02-11T14:49:57.716Z,62.77
2023-02-11T14:51:31.571Z,64.08
2023-02-11T14:53:03.304Z,64.78
2023-02-11T14:54:34.956Z,65.38
2023-02-11T14:56:22.960Z,65.84
2023-02-11T14:58:08.920Z,67.45
2023-02-11T14:59:52.561Z,69.07
2023-02-11T15:01:32.708Z,69.35
2023-02-11T15:03:04.437Z,69.86
2023-02-11T15:04:42.262Z,70.72
2023-02-11T15:06:20.515Z,70.89
2023-02-11T15:07:54.527Z,71.30
2023-02-11T15:09:36.628Z,71.54
2023-02-11T15:11:10.614Z,71.71
2023-02-11T15:12:42.475Z,72.12
2023-02-11T15:14:18.962Z,72.35
2023-02-11T15:15:50.979Z,71.77
2023-02-11T15:17:23.644Z,72.67
2023-02-11T15:18:56.313Z,72.52
2023-02-11T15:20:29.129Z,72.35
2023-02-11T15:22:00.833Z,73.05
2023-02-11T15:23:33.942Z,73.77
2023-02-11T15:25:10.592Z,73.80
2023-02-11T15:26:42.220Z,74.47
2023-02-11T15:28:21.885Z,74.61
2023-02-11T15:29:53.750Z,74.82
2023-02-11T15:31:26.305Z,74.26
2023-02-11T15:33:00.013Z,74.70
2023-02-11T15:34:32.411Z,74.49
2023-02-11T15:36:04.716Z,74.72
2023-02-11T15:37:36.347Z,74.71
2023-02-11T15:39:19.854Z,74.90
2023-02-11T15:40:53.383Z,74.87
2023-02-11T15:42:26.250Z,75.36
2023-02-11T15:43:57.924Z,75.16
2023-02-11T15:45:30.663Z,75.13
2023-02-11T15:47:02.369Z,75.12
2023-02-11T15:48:35.739Z,75.55
2023-02-11T15:50:08.208Z,75.44
2023-02-11T15:51:42.479Z,75.60
2023-02-11T15:53:23.502Z,75.59
2023-02-11T15:54:56.754Z,75.76
2023-02-11T15:56:30.512Z,75.79
2023-02-11T15:58:02.210Z,76.27
2023-02-11T15:59:35.985Z,76.45
2023-02-11T16:01:07.688Z,76.15
2023-02-11T16:02:45.206Z,76.51
2023-02-11T16:04:17.493Z,76.19
2023-02-11T16:05:52.346Z,76.60
2023-02-11T16:07:43.824Z,76.54
2023-02-11T16:09:29.774Z,76.49
2023-02-11T16:11:08.598Z,76.78
2023-02-11T16:12:40.276Z,76.99
2023-02-11T16:14:23.103Z,76.74
2023-02-11T16:15:55.147Z,77.22
2023-02-11T16:17:30.186Z,76.99
2023-02-11T16:19:06.250Z,76.17
2023-02-11T16:20:38.423Z,76.62
2023-02-11T16:22:11.316Z,76.87
2023-02-11T16:23:43.043Z,77.15
2023-02-11T16:25:19.061Z,76.89
2023-02-11T16:26:53.561Z,76.57
2023-02-11T16:28:25.286Z,77.20
2023-02-11T16:29:57.112Z,77.16
2023-02-11T16:31:33.226Z,77.32
2023-02-11T16:33:06.689Z,77.07
2023-02-11T16:34:38.397Z,77.05
2023-02-11T16:36:12.075Z,77.91
2023-02-11T16:37:43.748Z,77.89
2023-02-11T16:39:17.541Z,77.33
2023-02-11T16:40:50.100Z,77.92
2023-02-11T16:42:23.574Z,78.13
2023-02-11T16:43:57.084Z,78.33
2023-02-11T16:45:28.752Z,78.43
2023-02-11T16:47:00.804Z,78.62
2023-02-11T16:48:32.454Z,78.67
2023-02-11T16:50:04.703Z,78.81
2023-02-11T16:51:38.614Z,79.13
2023-02-11T16:53:10.422Z,78.71
2023-02-11T16:54:42.106Z,78.32
2023-02-11T16:56:15.532Z,78.64
2023-02-11T16:57:48.919Z,78.76
2023-02-11T16:59:20.662Z,78.64
2023-02-11T17:00:52.816Z,79.54
2023-02-11T17:02:25.813Z,79.01
2023-02-11T17:03:57.442Z,79.63
2023-02-11T17:05:29.109Z,79.52
2023-02-11T17:07:00.740Z,78.89
2023-02-11T17:08:32.561Z,79.26
2023-02-11T17:10:06.141Z,79.19
2023-02-11T17:11:37.843Z,79.09
2023-02-11T17:13:11.344Z,78.93
2023-02-11T17:14:43.029Z,79.71
2023-02-11T17:16:17.169Z,79.90
2023-02-11T17:17:48.885Z,79.84
2023-02-11T17:19:21.407Z,79.58
2023-02-11T17:20:53.090Z,79.87
2023-02-11T17:22:24.739Z,79.62
2023-02-11T17:23:56.455Z,79.90
2023-02-11T17:25:28.313Z,79.53
2023-02-11T17:27:00.035Z,80.14
2023-02-11T17:28:33.195Z,80.58
2023-02-11T17:30:05.986Z,80.86
2023-02-11T17:31:37.879Z,80.35
2023-02-11T17:33:09.633Z,79.91
2023-02-11T17:34:43.782Z,80.53
2023-02-11T17:36:15.801Z,80.34
2023-02-11T17:37:47.575Z,80.52
2023-02-11T17:39:21.044Z,80.89
2023-02-11T17:40:59.276Z,80.17
2023-02-11T17:42:31.523Z,80.81
2023-02-11T17:44:05.006Z,80.04
2023-02-11T17:45:43.955Z,80.61
2023-02-11T17:47:15.781Z,80.86
2023-02-11T17:48:47.508Z,80.49
2023-02-11T17:50:19.463Z,80.84
2023-02-11T17:51:52.425Z,79.81
2023-02-11T17:53:24.171Z,80.52
2023-02-11T17:54:56.094Z,80.48
2023-02-11T17:56:31.073Z,80.43
2023-02-11T17:58:05.574Z,80.66
2023-02-11T17:59:38.613Z,80.55
2023-02-11T18:01:10.395Z,80.93
2023-02-11T18:02:42.091Z,81.08
2023-02-11T18:04:15.243Z,80.45
2023-02-11T18:05:47.080Z,80.60
2023-02-11T18:07:21.341Z,80.85
2023-02-11T18:08:55.075Z,79.96
2023-02-11T18:10:31.201Z,79.83
2023-02-11T18:12:02.929Z,79.24
2023-02-11T18:13:34.756Z,79.99
2023-02-11T18:15:08.542Z,79.45
2023-02-11T18:16:43.184Z,80.02
2023-02-11T18:18:15.138Z,79.60
2023-02-11T18:19:47.000Z,80.08
2023-02-11T18:21:19.763Z,80.20
2023-02-11T18:22:54.336Z,79.78
2023-02-11T18:24:26.193Z,79.69
2023-02-11T18:25:57.832Z,80.59
2023-02-11T18:27:29.589Z,80.59
2023-02-11T18:29:05.231Z,80.65
2023-02-11T18:30:38.301Z,80.46
2023-02-11T18:32:10.037Z,80.65
2023-02-11T18:33:42.177Z,80.35
2023-02-11T18:35:15.897Z,80.87
2023-02-11T18:36:48.880Z,80.58
2023-02-11T18:38:20.695Z,79.94
2023-02-11T18:39:52.573Z,80.17
2023-02-11T18:41:24.286Z,80.50
2023-02-11T18:42:58.312Z,81.66
2023-02-11T18:44:32.820Z,81.44
2023-02-11T18:46:12.098Z,81.28
2023-02-11T18:47:43.874Z,81.16
2023-02-11T18:49:15.740Z,81.83
2023-02-11T18:50:47.459Z,81.04
2023-02-11T18:52:19.142Z,82.23
2023-02-11T18:53:50.818Z,81.05
2023-02-11T18:55:25.765Z,81.29
2023-02-11T18:56:57.465Z,81.80
2023-02-11T18:58:29.103Z,81.02
2023-02-11T19:00:00.855Z,80.80
2023-02-11T19:01:34.645Z,81.27
2023-02-11T19:03:06.349Z,81.21
2023-02-11T19:04:38.362Z,81.04
2023-02-11T19:06:14.417Z,80.52
2023-02-11T19:07:46.067Z,80.40
2023-02-11T19:09:18.845Z,80.48
2023-02-11T19:10:50.576Z,80.66
2023-02-11T19:12:22.911Z,80.88
2023-02-11T19:13:56.925Z,80.71
2023-02-11T19:15:28.552Z,80.92
2023-02-11T19:17:03.109Z,81.02
2023-02-11T19:18:34.893Z,80.75
2023-02-11T19:21:58.136Z,81.09
2023-02-11T19:23:31.482Z,81.09
2023-02-11T19:25:05.368Z,80.81
2023-02-11T19:26:37.502Z,81.12
2023-02-11T19:28:09.197Z,81.23
2023-02-11T19:29:44.037Z,81.45
2023-02-11T19:31:15.833Z,81.76
2023-02-11T19:32:52.499Z,80.70
2023-02-11T19:34:24.174Z,81.81
2023-02-11T19:35:55.834Z,80.97
2023-02-11T19:37:27.575Z,81.94
2023-02-11T19:38:59.823Z,82.33
2023-02-11T19:40:31.535Z,81.86
2023-02-11T19:42:03.336Z,81.84
2023-02-11T19:43:35.080Z,81.11
2023-02-11T19:45:07.497Z,81.45
2023-02-11T19:46:40.892Z,81.70
2023-02-11T19:48:14.211Z,81.50
2023-02-11T19:49:45.991Z,82.01
2023-02-11T19:51:19.695Z,81.96
2023-02-11T19:52:51.408Z,82.25
2023-02-11T19:54:23.129Z,82.14
2023-02-11T19:55:54.788Z,82.00
2023-02-11T19:57:26.906Z,81.94
2023-02-11T19:58:58.602Z,81.35
2023-02-11T20:00:30.428Z,81.44
2023-02-11T20:02:02.094Z,81.17
2023-02-11T20:03:35.202Z,81.49
2023-02-11T20:05:07.421Z,81.63
2023-02-11T20:06:39.070Z,81.52
2023-02-11T20:08:11.180Z,81.45
2023-02-11T20:09:43.062Z,80.87
2023-02-11T20:11:15.671Z,81.50
2023-02-11T20:12:47.351Z,81.56
2023-02-11T20:14:20.209Z,82.03
2023-02-11T20:15:52.176Z,81.41
2023-02-11T20:17:24.050Z,81.44
2023-02-11T20:19:02.113Z,81.75
2023-02-11T20:20:33.926Z,81.58
2023-02-11T20:22:05.992Z,81.86
2023-02-11T20:23:40.815Z,81.80
2023-02-11T20:25:12.608Z,83.03
2023-02-11T20:26:45.267Z,82.21
2023-02-11T20:28:17.137Z,81.68
2023-02-11T20:29:49.264Z,80.67
2023-02-11T20:31:21.092Z,80.75
2023-02-11T20:32:52.868Z,80.87
2023-02-11T20:34:26.033Z,80.54
2023-02-11T20:35:57.972Z,80.67
2023-02-11T20:37:29.650Z,80.44
2023-02-11T20:39:01.795Z,80.62
2023-02-11T20:40:33.479Z,81.03
2023-02-11T20:42:09.749Z,80.76
2023-02-11T20:43:41.623Z,80.58
2023-02-11T20:45:15.626Z,81.27